Filtrer par Nom Sexe Groupe d'age
Gassin-Golfe de Saint Tropez MedioFondo 2003
RG. DOS. TEMPS CAT RG. POINTS
1 2191 PICHON DENIS 03:37:02:000 E 1 150.00 PEGOMAS, FRANCE
2 2192 ARTHUIS SEBASTIEN 03:37:02:800 C 1 150.00 MONTAUROUX, FRANCE
3 2345 MARCEAU OLIVIER 03:41:08:000 D 1 150.00 VALBONNE, FRANCE
4 2379 BOURGEONNIER ALEXANDRE 03:41:29:000 C 2 149.50 FAVERGES, FRANCE
5 2101 FINE NICOLAS 03:41:30:000 C 3 149.00 LA SALLE LES ALPES, France
6 2395 ABOULIKAM YANNICK 03:42:29:000 C 4 148.50 LE MUY, FRANCE
7 2313 DALL AGNOL JEAN-FRANCOIS 03:42:31:500 E 2 149.50 AIX EN PROVENCE, FRANCE
8 2033 GERARD VINCENT 03:42:41:000 E 3 149.00 FLAYOSC, FRANCE
9 2225 DE GIRY ROMAIN 03:43:45:000 C 5 148.00 LA MOTTE, FRANCE
10 2341 BELAUBRE FREDERIC 03:43:49:000 C 6 147.50 SAINT RAPHAEL, FRANCE
11 2361 RICHARD STANISLAS 03:45:34:000 D 2 149.50 Annemasse, France
12 2172 MONIN PHILIPPE 03:46:44:000 D 3 149.00 CEYRESTE, FRANCE
13 2052 DE LUCA GENNARO 03:49:24:000 E 4 148.50 SAINT JUST SAINT RAMBERT, FRANCE
14 2234 TESIO PAOLO 03:50:31:000 D 4 148.50 OSASCO (TO), ITALIE
15 2278 CASSINOTTO CHRISTOPHE 03:51:05:000 D 5 148.00 SIX FOURS, FRANCE
16 2006 COTTIN BERNARD 03:51:07:600 D 6 147.50 VEAUCHE, FRANCE
17 63 BONAMY MARC 03:51:08:800 E 5 148.00 GARCHES, FRANCE
18 2194 RICHEDA WESLEY 03:51:10:000 C 7 147.00 LA CIOTAT, FRANCE
19 2066 DALMASSO CHRISTOPHE 03:51:39:700 D 7 147.00 APT, FRANCE
20 2324 DELPLANQUE DAVID 03:51:40:000 D 8 146.50 GRABELS, FRANCE
21 2212 MICHEL PASCAL 03:51:40:900 D 9 146.00 CANNES, FRANCE
22 2074 FOURNIER CHRISTIAN 03:51:42:000 E 6 147.50 EGUILLES, FRANCE
23 2343 SAVATTE REMY 03:52:56:000 D 10 145.50 FREJUS, FRANCE
24 2132 HABY AUREL 03:52:56:100 E 7 147.00 MARSEILLE, FRANCE
25 2053 HUMBERT PHILIPPE 03:52:56:900 D 11 145.00 ST MARCELLIN EN FOREZ, FRANCE
26 2367 SANSONE PIERRE 03:53:48:000 D 12 144.50 AIX EN PROVENCE, FRANCE
27 2081 NENZI JACQUES 03:54:09:000 D 13 144.00 LES PENNES MIRABEAU, France
28 2349 DUPONT BENOIT 03:54:09:000 C 8 146.50 PIERREFEU DU VAR, FRANCE
29 2178 GUERRAZZI CHRISTOPHE 03:54:10:000 C 9 146.00 GEMENOS, FRANCE
30 2386 EKINDJIAN STEPHANE 03:54:10:000 D 14 143.50 MARSEILLE, FRANCE
31 2399 SCARRONE ANDRE 03:54:12:000 F 1 150.00 HYERES, FRANCE
32 2149 RIVES LAURENT 03:54:13:100 C 10 145.50 LE BEAUSSET, FRANCE
33 2329 ARBARETAZ MICHEL 03:54:14:100 D 15 143.00 CHIMILIN, FRANCE
34 2309 CELLE JEAN MARC 03:54:15:000 E 8 146.50 LA GARDE, FRANCE
35 2328 CHALEAT MARIE-JOSEE 03:54:15:100 A 1 150.00 DOLOMIEU, FRANCE
36 2332 FOURNA EDDY 03:54:15:700 D 16 142.50 ST NAZAIRE LES EYMES, FRANCE
37 2344 BLASCO CARL 03:54:19:000 D 17 142.00 SAINT RAPHAEL, FRANCE
38 2327 CHALEAT PATRICK 03:54:24:000 D 18 141.50 DOLOMIEU, FRANCE
39 2184 DEDIEU MAURICE 03:56:04:000 G 1 150.00 MANDELIEU, FRANCE
40 2254 GIRAUDO LIONEL 03:56:41:000 C 11 145.00 LES ARCS /ARGENS, FRANCE
41 2051 MALEYSSON SERGE 03:57:57:000 D 19 141.00 42210 - BELLEGARDE EN FOREZ, France
42 2124 POIS BRUNO 03:57:58:000 E 9 146.00 LA BRIDOIRE, FRANCE
43 2354 BOUILLOT FREDERIC 04:00:07:000 E 10 145.50 CHARLEVILLE MEZIERES, FRANCE
44 2281 GRABIA GABRIEL 04:00:07:700 E 11 145.00 MARSEILLE, FRANCE
45 2005 DEGANO STEPHANE 04:00:08:800 D 20 140.50 Mandelieu, France
46 2183 MALLET OLIVIER 04:00:09:000 E 12 144.50 LA NAPOULE MANDELIEU, FRANCE
47 2340 BROSIA ROBERTO 04:00:09:500 E 13 144.00 S. SECONDO (TO), ITALIE
48 2080 MAGE OLIVIER 04:00:10:000 D 21 140.00 PERIGNAT LES SARLIEVE, FRANCE
49 2189 MACARI MAURICE 04:00:10:000 E 14 143.50 PEGOMAS, FRANCE
50 2321 FRACHON STEPHANE 04:01:20:000 D 22 139.50 GRABELS, FRANCE
51 2128 VITTONE PIER MARIO 04:03:12:000 E 15 143.00 VILLAR PEROSA (TO), ITALIE
52 2342 ROCHIAS ERIC 04:03:30:200 D 23 139.00 LES ARCS, FRANCE
53 2252 PORTAL MICHEL 04:03:31:500 E 16 142.50 SALON, FRANCE
54 2036 MAMBRE GILLES 04:03:45:000 D 24 138.50 TOULON, FRANCE
55 2015 BALANDREAUD YVES 04:04:15:000 D 25 138.00 TALENCIEUX, FRANCE
56 322 TURINI JEROME 04:04:17:000 D 26 137.50 LE PUY ST REPARADE, FRANCE
57 2256 TEMPORELLI SANDRA 04:04:17:700 A 2 149.50 LES ISSAMBRES, FRANCE
58 2012 NGUYEN FRANCK 04:04:17:900 D 27 137.00 SAINT MARTIN LE VINOUX, FRANCE
59 2090 BALLATORE JOHAN 04:04:18:000 C 12 144.50 AUBAGNE, FRANCE
60 369 JAY VINCENT 04:04:19:900 D 28 136.50 BOISSET ST PRIEST, FRANCE
61 2240 BEKAERT GUY 04:04:34:000 D 29 136.00 TRANS EN PROVENCE, France
62 2262 CRABOS JEAN-JACQUES 04:04:35:000 E 17 142.00 FREJUS, FRANCE
63 2348 MATTEOLI J.LOUIS 04:04:35:000 F 2 149.50 FREJUS, FRANCE
64 2396 HUGDELARAUZE PASCAL 04:04:35:100 D 30 135.50 TOULON, FRANCE
65 2095 VERGNES PATRICK 04:04:36:000 D 31 135.00 TOULON, FRANCE
66 2211 GUICHOUX PATRICE 04:05:04:000 D 32 134.50 TOULON, FRANCE
67 2067 DALMASO DAVID 04:05:42:000 C 13 144.00 DONZERE, FRANCE
68 211 DELAGE MARC 04:06:07:000 E 18 141.50 ROQUEVAIRE, FRANCE
69 2044 GUILLON PIERRE 04:07:02:000 G 2 149.50 FRONTONAS, FRANCE
70 2312 ROCCA PAUL 04:07:41:000 E 19 141.00 AIX EN PROVENCE, FRANCE
71 2359 SANCHEZ FRAN€OIS 04:07:41:100 D 33 134.00 SAINTE DE LA CROISETTE, FRANCE
72 2364 TRIOLO FREDERIC 04:07:46:000 D 34 133.50 MEYREUIL, FRANCE
73 2232 BLEIN ERIC 04:07:54:000 E 20 140.50 ROUSSET, FRANCE
74 2325 PAPIN MATTHIEU 04:07:57:000 C 14 143.50 LE PRADET, FRANCE
76 237 FOURNIER GILLES 04:08:01:000 D 35 133.00 LA TRONCHE, FRANCE
77 2188 ERCOLAMELLI JOEL 04:08:11:000 D 36 132.50 LA ROQUETTE, FRANCE
78 2264 BERTHUY PATRICK 04:08:43:000 D 37 132.00 LES ISSAMBRES, FRANCE
79 2257 CHARDON MICHEL 04:08:43:400 E 21 140.00 ROQUEBRUNE SUR ARGENS, FRANCE
80 2075 COLIN FREDERIC 04:10:09:000 D 38 131.50 TRETS, FRANCE
81 2269 PARRA FRéDéRIC 04:10:10:600 D 39 131.00 MEYREUIL, FRANCE
82 2387 GEZ FREDERIC 04:10:11:400 D 40 130.50 DRAGUIGNAN, FRANCE
83 2096 ARHUIS LIONEL 04:10:40:000 D 41 130.00 TOULON, FRANCE
84 2208 HUMBERT GUY 04:10:40:000 F 3 149.00 NANTUA, FRANCE
85 2000 CAUDRON J.PAUL 04:10:41:000 E 22 139.50 TOULON, FRANCE
86 2026 MARINO ANDRE 04:12:15:000 F 4 148.50 FOS SUR MER, FRANCE
87 2034 TORRENTE JEAN PHILIPPE 04:12:31:000 D 42 129.50 TOULON, FRANCE
88 368 CHADUC BRUNO 04:12:43:000 C 15 143.00 LES MILLES, FRANCE
89 2160 BERTIN PATRICK 04:13:15:000 E 23 139.00 CALLAS, FRANCE
91 2120 GUILLON ALAIN 04:13:18:000 E 24 138.50 MARSEILLE, FRANCE
92 2315 CAMOSSO THIERRY 04:13:20:000 D 43 129.00 SOLLIES PONT, FRANCE
93 356 COUDERC LIONEL 04:13:26:000 D 44 128.50 SALINDRES, FRANCE
94 341 GHENNAM LIONEL 04:13:29:000 D 45 128.00 ST LAURENT DU VAR, FRANCE
95 577 CHATRON THIERRY 04:13:29:500 D 46 127.50 NEUVECELLE, FRANCE
96 2274 SOARES PEREIRA FERNANDO 04:13:48:000 F 5 148.00 PALADRU, FRANCE
97 2261 CULTRERA SEBASTIEN 04:14:32:000 C 16 142.50 LE MUY, FRANCE
98 2016 MUFFAT JEAN CHRISTOPHE 04:14:32:600 D 47 127.00 PUGET SUR ARGENS, FRANCE
99 2355 PERARD YVES 04:14:34:000 F 6 147.50 VILLERS SEMEUSE, FRANCE
100 2129 GASTALDI PHILIPPE 04:14:34:600 E 25 138.00 LE LAVANDOU, FRANCE
101 2037 GRECO MICHEL 04:14:37:000 E 26 137.50 TOULON, FRANCE
102 583 ZININO CHRISTIAN 04:14:39:000 D 48 126.50 TOULON, FRANCE
103 585 GOMEZ BRUNO 04:14:39:500 D 49 126.00 CUERS, FRANCE
104 2023 GARCIA JEAN FRANCOIS 04:14:40:000 F 7 147.00 GRASSE, FRANCE
105 310 MAISTRE OLIVIER 04:15:07:000 D 50 125.50 VENCE, FRANCE
106 2390 PRENEL JACQUES 04:16:01:000 F 8 146.50 VINS / CARAMI, FRANCE
107 2351 HERVIER JEAN LUC 04:16:02:000 E 27 137.00 FREJUS, FRANCE
108 2300 OBERT CLAUDE 04:16:04:000 E 28 136.50 SCHERWILLER, FRANCE
109 2060 DEFAYE PASCAL 04:16:04:100 E 29 136.00 FREJUS, FRANCE
110 2084 SILVESTRO DANIEL 04:16:04:600 F 9 146.00 CARNOUX EN PROVENCE, FRANCE
111 2230 LALOUX GUY 04:16:05:000 G 3 149.00 BEERSEL, Belgique
112 2250 MOREL MAURICE 04:16:24:000 F 10 145.50 LONS LE SAUNIER, FRANCE
113 408 GUEHO FREDERIC 04:16:53:000 D 51 125.00 SAINTE MAXIME, FRANCE
114 2091 TAXY CYRIL 04:17:09:000 C 17 142.00 SAINT RAPHAEL, FRANCE
115 2291 JACQUOT JACKY 04:17:15:000 G 4 148.50 ST GERMAIN DU PLAIN, FRANCE
116 2147 ALLER PHILIPPE 04:17:16:000 F 11 145.00 Gap, France
117 2461 BONFILS FRANCOIS 04:17:16:000 E 30 135.50 LA FARLEDE, France
118 2153 OLIVERO SERGE 04:18:33:000 E 31 135.00 LE PRADET, FRANCE
119 2360 BOURDELIER JEAN PAUL 04:18:34:000 E 32 134.50 HYERES, FRANCE
120 2055 PECHEUX RICHARD 04:18:35:200 D 52 124.50 SAVIGNY SUR ORGE, FRANCE
121 2384 LIEVRE PHILIPPE 04:18:37:000 E 33 134.00 GRASSE, FRANCE
122 2389 VECRIN BERNARD 04:18:40:000 F 12 144.50 CEYRESTE, FRANCE
123 2011 FERRERE GERARD 04:18:51:000 F 13 144.00 ECHIROLLES, FRANCE
124 2162 DUSSART LUC 04:19:40:000 E 34 133.50 CASSIS, FRANCE
125 2022 SARAMITO BRUNO 04:19:52:000 D 53 124.00 MOUGINS, FRANCE
126 65 BERGAS MARC 04:20:39:000 D 54 123.50 AIX EN PROVENCE, FRANCE
127 2456 BENEDETTI GUY 04:21:21:000 D 55 123.00 PIERREFEU, FRANCE
128 2318 GUILLERY CHRISTIAN 04:21:52:000 G 5 148.00 AUBIERE, FRANCE
129 2102 GUIBERT REGIS 04:22:00:000 F 14 143.50 ST ZACHARIE, FRANCE
130 394 TALABARDON HERVE 04:22:01:000 F 15 143.00 LE PLESSIS TREVISE, FRANCE
131 2146 DOYEN GILLES 04:22:09:000 D 56 122.50 SANARY, FRANCE
132 2219 LAYAT JEAN PIERRE 04:22:10:500 G 6 147.50 AYZE, FRANCE
133 2079 ESCOTTE ALAIN 04:22:11:200 F 16 142.50 CHASSIEU, FRANCE
134 2035 CHARMETTE BERNARD 04:22:12:600 F 17 142.00 POUILLY LES NONNAINS, FRANCE
135 2259 BASSO GILBERT 04:22:13:000 E 35 133.00 FREJUS, FRANCE
136 2171 RIBAUD DIDIER 04:22:14:300 E 36 132.50 CEYRESTE, FRANCE
137 2198 GOURY DIDIER 04:22:16:000 E 37 132.00 BOURGOIN JALLIEU, FRANCE
138 2289 MILLARD JOEL 04:22:16:000 F 18 141.50 BRANGES, FRANCE
139 2144 LEFORT WILLY 04:22:46:000 C 18 141.50 FREJUS, FRANCE
140 2369 GUEZOU ARNAUD 04:22:47:400 C 19 141.00 AIX EN PROVENCE, FRANCE
141 2290 DUCREUX BERNARD 04:22:51:000 F 19 141.00 CUERS, FRANCE
142 2279 LLOPIS JEAN CLAUDE 04:23:32:000 E 38 131.50 LA CADIERE D'AZUR, FRANCE
143 2282 GRANDJEAN PATRICK 04:23:59:000 E 39 131.00 BELIGNEUX, FRANCE
144 2242 BEKAERT GERARD 04:23:59:400 E 40 130.50 TRANS EN PROVENCE, FRANCE
145 2362 ARCIDIACONO DIDIER 04:24:00:000 D 57 122.00 MARSEILLE, FRANCE
146 2092 GRIGNON PATRICK 04:24:01:000 E 41 130.00 TRETS, FRANCE
147 2381 BLANC MICHEL 04:24:01:000 E 42 129.50 LA VALETTE, FRANCE
148 2316 COMBRICHON CLAUDE 04:24:01:200 E 43 129.00 VENDAT, FRANCE
149 2382 BAIMA JEROME 04:24:02:000 C 20 140.50 LA GARDE, FRANCE
150 2238 BIANCHI ALAIN 04:24:07:300 E 44 128.50 SAINT RAPHAEL, FRANCE
151 391 HIRIBARNE JACKY 04:24:31:000 E 45 128.00 NICE, FRANCE
152 484 BEL DIDIER 04:24:35:000 E 46 127.50 LES DEUX ALPES, FRANCE
153 2127 LOCHE PATRICE 04:24:52:000 E 47 127.00 NICE, FRANCE
154 2024 GARCIA NADEGE 04:24:54:000 A 3 149.00 GRASSE, FRANCE
155 2003 LAFFI BERNARD 04:24:55:000 F 20 140.50 LES PENNES MIRABEAU, FRANCE
156 2248 PENZ JEROME 04:24:55:800 E 48 126.50 ST NICOLAS DE VEROCE, FRANCE
157 2148 CHABRAND FRANCOIS 04:24:56:000 E 49 126.00 annecy, France
158 2308 CELLE SABINE 04:24:56:000 A 4 148.50 LA GARDE, FRANCE
159 2039 DECOCQ JEAN-CLAUDE 04:24:57:700 F 21 140.00 BEAURAINS, FRANCE
160 2150 AUDOUX DANIEL 04:25:00:100 F 22 139.50 MEUDON, FRANCE
161 134 LUBESPERE J.FRANCOIS 04:25:38:000 E 50 125.50 ORANGE, FRANCE
162 2123 DISPA BERNARD 04:25:47:000 F 23 139.00 AMBERIEUX EN DOMBES, FRANCE
163 2056 DUSSART JEAN 04:25:48:200 G 7 147.00 MARSEILLE, FRANCE
164 2246 CASTELLANA DIDIER 04:26:33:000 D 58 121.50 CARQUEIRANNE, FRANCE
165 252 GRAPIN JEAN LUC 04:27:10:400 E 51 125.00 TROYES, FRANCE
166 2045 VAUTRIN CHRISTIAN 04:27:58:000 E 52 124.50 VILLEFONTAINE, FRANCE
167 530 ELLIS CHRISTOPHER 04:28:36:000 E 53 124.00 LES MILLES, FRANCE
168 2103 CALVIN DANIEL 04:28:55:000 D 59 121.00 LE PONTET, FRANCE
169 2210 EXCOFFIER CLAUDE 04:29:29:000 E 54 123.50 VALLEIRY, FRANCE
170 2190 LUCAS ARNAUD 04:29:33:000 D 60 120.50 MANDELIEU, FRANCE
171 2319 FERNANDEZ ALAIN 04:29:38:000 D 61 120.00 COTIGNAC, FRANCE
172 438 DA SILVA JOSE 04:29:51:000 E 55 123.00 BERGHEIM, FRANCE
173 2134 HUGOU GILLES 04:30:00:000 E 56 122.50 SAINT MAXIMIN LA SAINTE BAUME, FRANCE
175 2365 TASSONE PHILIPPE 04:30:42:000 D 62 119.50 SANARY, FRANCE
176 2376 RAFANO SERGE 04:31:23:000 E 57 122.00 MARSEILLE, FRANCE
177 2135 SANCHEZ EMMANUEL 04:31:23:700 E 58 121.50 ST MAXIMIN, FRANCE
178 2220 GRADOZ PHILIPPE 04:31:24:000 E 59 121.00 HYERES, FRANCE
179 2156 AIELLO ALAIN 04:31:30:000 E 60 120.50 MARSEILLE, FRANCE
180 2143 MARTEL JULIEN 04:31:58:000 C 21 140.00 ROQUEBRUNE SUR ARGENS, FRANCE
181 2215 GATTO PHILIPPE 04:31:59:000 D 63 119.00 BRIGNOLES, FRANCE
182 2027 QUADRUPPANI JOEL 04:32:01:000 D 64 118.50 LA LONDE, FRANCE
183 2173 NURY CHRISTIAN 04:32:01:000 E 61 120.00 DRAGUIGNAN, FRANCE
184 2119 ROMANET DIDIER 04:32:38:000 E 62 119.50 LA CIOTAT, FRANCE
185 2247 LEROY FRANCK 04:32:43:000 D 65 118.00 LA RUE SAINT PIERRE, FRANCE
186 2253 HENNION CEDRIC 04:33:38:000 D 66 117.50 MONTELIMAR, FRANCE
187 2168 BORDON ANGEL BORDON ANNE MARIE 04:33:58:000 D 67 117.00 CAVALAIRE, FRANCE
188 2371 MAGNIEN PIERRE 04:34:01:000 C 22 139.50 HYERES, FRANCE
189 2089 BENTEO DANIEL 04:34:01:500 F 24 138.50 CARNOUX EN PROVENCE, FRANCE
190 481 GOZZOLI THIERRY 04:34:08:500 D 68 116.50 LA SEYNE S/MER, FRANCE
191 2041 GONCALVES EURICO 04:34:44:000 D 69 116.00 LE BEAUSSET, FRANCE
192 2251 PRESTA SERGE 04:34:47:000 F 25 138.00 MEAUX, FRANCE
193 185 DERBEZ THIERRY 04:34:51:000 E 63 119.00 GASSIN, France
194 208 SCLAVOUNOS PIERRE 04:34:54:000 E 64 118.50 ALLAUCH, FRANCE
195 12 RICO LAURE 04:34:54:800 A 5 148.00 GRENOBLE, FRANCE
196 2263 LANDRA NATHALIE 04:34:58:000 A 6 147.50 ROQUEBRUNE SUR ARGENS, FRANCE
197 2267 BARSI THIERRY 04:34:58:000 E 65 118.00 FREJUS, FRANCE
198 262 COLLETTE J.CLAUDE 04:35:06:000 G 8 146.50 BRUXELLES, BELGIQUE
199 2076 HUGON CLAUDE 04:36:31:000 E 66 117.50 LA GARDE, FRANCE
200 2137 DROUHOT PHILIPPE 04:36:31:000 E 67 117.00 MEOUNES LES MONTRIEUX, FRANCE
201 2221 JOLIT MAX 04:36:32:600 E 68 116.50 HYERES, FRANCE
202 2222 LOVERA PIERRE 04:36:33:900 F 26 137.50 VILLARD DE LANS, FRANCE
203 157 GUERIF PIERRE 04:37:41:000 F 27 137.00 SEPTEMES LES VALLONS, FRANCE
204 2216 GUYOMARC H STEPHANE 04:38:19:000 D 70 115.50 MARSEILLE, FRANCE
205 2197 FRACHEBOUD WILLIAM 04:38:29:000 F 28 136.50 CARTIGNY, SUISSE
206 2347 CREZZINI DENIS 04:38:39:000 E 69 116.00 FREJUS, FRANCE
207 2169 LAMBERT PHILIPPE 04:39:05:000 E 70 115.50 BARCELONNETTE, FRANCE
208 2030 FALGAYRAC HENRI 04:39:13:800 G 9 146.00 LANCON DE PROVENCE, FRANCE
209 2301 PRIOR JOSE 04:39:14:000 F 29 136.00 MONTCENIS, FRANCE
210 2292 GAY JEAN MARIE 04:39:15:000 F 30 135.50 LOUHANS, FRANCE
211 2223 REGOTTAZ CLAUDE 04:39:16:500 D 71 115.00 CHALLES LES EAUX, FRANCE
212 205 LEMARQUIS DANIEL 04:39:56:000 E 71 115.00 STE MAXIME, FRANCE
213 2021 CHAUVEAU JEAN LOUIS 04:40:08:000 F 31 135.00 CARCES, FRANCE
214 2388 JACQUOT ANDRE 04:40:12:000 F 32 134.50 AIX EN PROVENCE, FRANCE
215 2082 BAILLE STEPHANE 04:40:21:000 E 72 114.50 LE MAS STE PUELLE, FRANCE
216 2072 ROULLAND DOMINIQUE 04:40:23:000 D 72 114.50 AIX EN PROVENCE, FRANCE
217 2181 MONTEL DOMINIQUE 04:40:38:000 E 73 114.00 BRIOUDE, FRANCE
218 2277 GAUTHIER MICHEL 04:41:15:000 F 33 134.00 TOULON, FRANCE
219 2098 COISY DOMINIQUE 04:41:23:000 F 34 133.50 LA LONDE, FRANCE
220 2237 BARBIERE GEORGES 04:41:24:000 F 35 133.00 AIGLEMONT, FRANCE
221 2229 ROMERO JEROME 04:41:54:000 G 10 145.50 CHOISY LE ROI, FRANCE
223 442 ADAM PHILIPPE 04:42:02:400 E 74 113.50 TOULON, FRANCE
224 2050 MIGUEL FREDERIC 04:42:55:000 D 73 114.00 ST CHAMOND, FRANCE
225 2099 ERMACORA JEAN PAUL 04:43:04:000 F 36 132.50 BARCELONNETTE, FRANCE
226 2155 BOYET MICHEL 04:43:15:000 F 37 132.00 LA CRAU, FRANCE
227 2217 ROMANO FREDERIC 04:43:17:000 E 75 113.00 MARSEILLE, FRANCE
228 2154 SOLER DOMINIQUE 04:43:19:000 E 76 112.50 LA LONDE LES MAURES, FRANCE
229 163 BRUN WILLIAM 04:44:00:000 E 77 112.00 LES ANGLES, FRANCE
230 2236 VINCENT JEAN 04:44:18:000 G 12 144.50 JARDIN, FRANCE
231 2193 DESCHAMPS PASCAL 04:44:21:000 D 74 113.50 LE CANNET ROCHEVILLE, FRANCE
232 2187 LEFORT JEAN LOUIS 04:44:21:100 E 78 111.50 MANDELIEU, FRANCE
233 2161 SAUVE HUGUES 04:44:47:000 E 79 111.00 MARSEILLE, FRANCE
234 2314 VIGNON MICHEL 04:44:49:000 F 38 131.50 GASSIN, FRANCE
235 2284 LORENZO XAVIER 04:44:54:000 D 75 113.00 LA MOTTE SERVOLEX, FRANCE
236 2368 DUMEY JEAN MARC 04:45:41:000 E 80 110.50 TOULON, FRANCE
237 2117 ISNARD GILBERT 04:46:03:700 G 13 144.00 AIX EN PROVENCE, FRANCE
238 2151 INDIANI PIERRE 04:46:09:000 D 76 112.50 DIGNE LES BAINS, FRANCE
239 2213 LEFEBVRE LAURENT 04:46:38:000 D 77 112.00 BRIGNOLES, FRANCE
240 2001 COLSON SEBASTIEN 04:47:01:000 D 78 111.50 BELLIGNAT, FRANCE
241 2231 MATHIEU ALBERT 04:47:59:000 G 14 143.50 SECHILIENNE, FRANCE
242 2165 ARNAUD DAVID 04:48:01:000 D 79 111.00 ANNECY LE VIEUX, FRANCE
243 2063 NICOLAI PASCAL 04:48:19:000 D 80 110.50 VENCE, FRANCE
244 2241 FRANCILLON HERVE 04:49:05:000 D 81 110.00 DRAGUIGNAN, FRANCE
245 497 VERZEROLI ALAIN 04:49:10:000 E 81 110.00 GAP, FRANCE
246 346 BAUDRY J.CLAUDE 04:49:12:000 F 39 131.00 JAVREZAC, FRANCE
247 2275 MANSAS JEAN 04:49:13:000 G 15 143.00 ST ORENS DE GAMEVILLE, FRANCE
248 2283 MILLION JEAN MARC 04:49:14:000 E 82 109.50 SAINT-OURS, FRANCE
249 2285 GARCIA JOSE 04:49:14:000 E 83 109.00 LA MOTTE SERVOLEX, FRANCE
250 2255 GIRAUDO GERARD 04:49:55:000 E 84 108.50 LES ARCS SUR ARGENS, FRANCE
251 2459 VEYRET JACKY 04:50:22:000 E 85 108.00 HYERES, FRANCE
252 564 WOSTROWSKI BERNARD 04:50:26:000 E 86 107.50 MARSEILLE, FRANCE
253 337 LAJARA FABRICE 04:51:21:000 D 82 109.50 VIDAUBAN, France
254 453 CARRARA FABRICE 04:51:21:600 D 83 109.00 VIDAUBAN, FRANCE
255 586 VEZZARO HENRI 04:51:26:500 F 40 130.50 CARQUEIRANNE, FRANCE
256 2170 VERRANDO PHILIPPE 04:51:40:300 E 87 107.00 MONACO, 24
257 2298 ABELA FRANCOIS 04:52:06:000 F 41 130.00 LES ISSAMBRES, FRANCE
258 2100 BALLESTRACCI ROBERT 04:53:26:000 E 88 106.50 MARSEILLE, FRANCE
259 381 BASSET THIERRY 04:54:20:600 D 84 108.50 FRONTIGNAN, FRANCE
260 2449 PELLENARD FREDERIC 04:55:01:000 D 85 108.00 LE PRADET, FRANCE
261 2454 CHALAYE LAURENT 04:55:01:000 D 86 107.50 LA CRAU, FRANCE
262 2448 CALVO JEAN MICHEL 04:55:01:400 D 87 107.00 SOLLIES TOUCAS, FRANCE
263 2451 MATTIO FRANCK 04:55:01:500 D 88 106.50 LA GARDE, FRANCE
264 2121 SARACCO SERGE 04:55:07:000 F 42 129.50 MARSEILLE, FRANCE
265 319 KAMARAD CLAUDE 04:55:13:000 G 16 142.50 LE PERRAY EN YVELINES, FRANCE
266 2452 BOBILLE CHRISTOPHE 04:55:43:000 D 89 106.00 CANNES, FRANCE
267 2136 PRUNET ERIC 04:55:44:900 D 90 105.50 CANNES LA BOCCA, FRANCE
268 376 SASIA STEPHAN 04:56:01:000 C 23 139.00 MARSEILLE, FRANCE
269 2375 BERTRAND FRANCOIS 04:56:41:000 F 43 129.00 GRASSE, FRANCE
270 584 LAMBINET MICHEL 04:57:02:300 F 44 128.50 MONTCY NOTRE DAME, FRANCE
271 269 MORDACQ GUILLAUME 04:57:04:000 E 89 106.00 LYON, France
272 384 DAUNEAU JACQUES 04:57:09:000 E 90 105.50 NICE, FRANCE
273 2228 ALLEMAND BERNARD 04:57:14:000 E 91 105.00 ANNECY, FRANCE
274 2243 JULLION JACQUES 04:57:23:000 E 92 104.50 WARQ, FRANCE
275 2047 VEYRON JACQUES 04:57:47:000 E 93 104.00 VILLEFONTAINE, FRANCE
276 2394 BUONOCORE HENRI 04:58:09:000 G 17 142.00 SANARY / MER, FRANCE
277 2083 TUMAYAN JULIEN 04:58:32:000 G 18 141.50 CARNOUX EN PROVENCE, FRANCE
278 2391 MAZZOCCA JEANINE 04:58:36:800 B 1 150.00 CARNOUX EN PROVENCE, FRANCE
279 2207 REA JEAN CLAUDE 04:58:37:900 E 94 103.50 FREJUS, FRANCE
280 2062 DE SOUSA FERNAND 04:58:38:000 E 95 103.00 CASSIS, FRANCE
281 180 CHASSAT PIERRE 04:58:44:000 F 45 128.00 PUTEAUX, FRANCE
282 2218 MALLARD FREDERIC 04:59:01:000 D 91 105.00 GRIMAUD, FRANCE
283 2293 PIOVESAN JEAN 05:00:29:000 F 46 127.50 MONTAGNY PRES LOUHANS, FRANCE
284 445 COLLOMBAT GERARD 05:00:56:000 G 19 141.00 VOLX, FRANCE
285 2020 DE SMET CHIRS 05:01:16:000 F 47 127.00 AFSNEE, BELGIQUE
286 250 HOUOT ROBERT 05:01:20:000 F 48 126.50 DOUCY, FRANCE
287 2370 NIZOU GUILLAUME 05:01:32:000 D 92 104.50 AIX EN PROVENCE, FRANCE
288 2224 BERGER VINCENT 05:01:38:000 C 24 138.50 FONTAINE, FRANCE
289 552 RAIBAUD JEAN CLAUDE 05:01:40:000 E 96 102.50 SAINT BLAISE, FRANCE
290 2378 MERLY ALPA JEAN PIERRE 05:02:00:000 E 97 102.00 MARSEILLE, FRANCE
292 2287 ABADIE GASTON 05:02:06:000 G 20 140.50 FREJUS, FRANCE
293 2179 LERAY JEAN 05:02:09:000 G 21 140.00 SAUTRON, FRANCE
294 2205 DESMIDTS CLAUDE 05:02:10:500 E 98 101.50 PELISSANNE, FRANCE
295 2069 MARTIAL PASCAL 05:02:11:000 E 99 101.00 BARJOLS, FRANCE
296 2105 BASTIM ANDRE 05:02:14:000 F 49 126.00 ST BARTHEMELY DE VALS, FRANCE
297 2331 GRINAND ROBERT 05:02:14:500 E 100 100.50 PELISSANNE, FRANCE
298 2104 FRAISSE J.CLAUDE 05:02:14:600 F 50 125.50 MOURS ST EUSEBE, FRANCE
299 5016 SCAIA DAVID 05:02:49:000 C 25 138.00 CAGNES SUR MER, FRANCE
300 2042 BIGEL YVES 05:03:29:000 E 101 100.00 VILLEFONTAINE, FRANCE
301 103 RICHARDSON PETER 05:03:32:000 D 93 104.00 LONDON, Royaume-Uni
302 2199 BOMMIER JEAN PHILIPPE 05:03:36:000 D 94 103.50 CABRIES, FRANCE
303 2302 GOUBIOUD THIERRY 05:03:47:000 E 102 99.50 SAINT MAXIMIN, FRANCE
304 2306 BALESDENS BERNARD 05:03:51:000 F 51 125.00 LA MURETTE, FRANCE
305 2226 THOMAS ROLAND 05:04:06:000 F 52 124.50 CAUDEBEC LES ELBEUF, FRANCE
306 2085 SCODITTI BERNARD 05:04:56:000 E 103 99.00 CARNOUX EN PROVENCE, FRANCE
308 2058 MIZZON FABRIZIO 05:06:00:000 E 104 98.50 IMPERIA, ITALIE
309 2115 MONTMEY DAVID 05:06:20:000 C 26 137.50 DIJON, FRANCE
310 36 BRIQUET ALBERT 05:06:26:000 G 22 139.50 CATUS, FRANCE
311 2462 MONTEFUSCO MARC 05:06:42:000 E 105 98.00 LE CASTELLET, FRANCE
312 149 BUSSI CHRISTIAN 05:06:53:000 F 53 124.00 MARIGNANE, FRANCE
313 2214 BREMOND DENIS 05:06:58:000 F 54 123.50 BRIGNOLES, FRANCE
314 2158 LAHOZ PATRICK 05:06:59:000 E 106 97.50 BRUE AURIAC, FRANCE
315 2177 LHOSTE SERGE 05:07:00:500 E 107 97.00 COUTHERON, FRANCE
316 137 LOUBET DANIEL 05:07:17:100 F 55 123.00 ANTIBES, FRANCE
317 2175 RASSAT AGNES 05:09:12:000 A 7 147.00 VOLX, FRANCE
318 2176 LEGAT BRUNO 05:09:14:400 D 95 103.00 VOLX, FRANCE
319 2159 PEREZ CHRISTIAN 05:09:25:000 E 108 96.50 MARSEILLE, FRANCE
320 2164 AUGEREAU JEAN MICHEL 05:09:27:000 E 109 96.00 MARTIGUES, FRANCE
321 2305 GAILLARD PIERRE 05:09:27:000 D 96 102.50 TOURNON, FRANCE
322 2206 GABRIELLI ROBERT 05:09:48:000 E 110 95.50 MOUANS SARTOUX, FRANCE
323 2157 DESMARIES MICHEL 05:09:50:000 E 111 95.00 MARSEILLE, FRANCE
324 2310 FORTINI SOPHIE 05:09:50:300 A 8 146.50 LA CIOTAT, FRANCE
325 2139 ROUAND PIERRE 05:10:21:000 F 56 122.50 LA LONDE LES MAURES, FRANCE
326 312 GALOUYE CLAUDE 05:10:27:000 G 23 139.00 SOLLIES PONT, FRANCE
327 2032 SOUQUET J.EDOUARD 05:11:14:000 G 24 138.50 TOULON, FRANCE
328 270 COURQUIN JEAN PIERRE 05:12:02:900 F 57 122.00 LE VAL ST GERMAIN, FRANCE
329 145 GIRODET JACQUES 05:12:03:600 F 58 121.50 ANNONAY, FRANCE
330 441 PICAUD FRANCK 05:12:53:000 D 97 102.00 NICE, FRANCE
332 2258 FREY PASCAL 05:13:07:500 E 112 94.50 LA MOTTE, FRANCE
333 2266 TORRAILLE LIONEL 05:13:10:500 E 113 94.00 ROQUEBRUNE SUR ARGENS, FRANCE
334 2260 DUCONSEIL CHRISTIAN 05:13:11:000 F 59 121.00 PUGET SUR ARGENS, FRANCE
335 2336 VAN DER HOEK JEROEN 05:13:12:000 E 114 93.50 EINDHOVEN, Pays-Bas
336 566 AUGER XAVIER 05:13:15:000 E 115 93.00 CHATILLON-GUYOTTE, FRANCE
337 2245 MAUREL MAURICE 05:14:12:800 G 25 138.00 ROQUEBRUNE SUR ARGENS, FRANCE
338 2131 DUFOUR CHRISTIAN 05:15:38:900 E 116 92.50 COGOLIN, FRANCE
339 2377 LLINARES JEAN YVES 05:16:47:000 D 98 101.50 MARSEILLE CEDEX, FRANCE
340 2031 PASCAL CLAUDE 05:16:52:000 F 60 120.50 VELAUX, FRANCE
341 2180 DENHIERE GUY 05:16:58:000 G 26 137.50 AIX EN PROVENCE, FRANCE
342 167 GARET JEAN 05:17:01:100 G 27 137.00 AVIGNON, FRANCE
343 2330 MONDON MICHEL 05:17:02:000 F 61 120.00 DRAGUIGNAN, FRANCE
344 2017 CHANTELOUP OLIVIER 05:17:27:000 E 117 92.00 HYERES, FRANCE
347 2122 HUBSCHWERLIN DANIEL 05:18:35:000 G 28 136.50 PEYMEINADE, FRANCE
348 2196 IMBERT NICOLAS 05:18:40:000 D 99 101.00 SUZE LA ROUSSE, FRANCE
349 2018 PIOTROWSKI JOSEPH 05:18:52:000 G 29 136.00 VARENNES LE GRAND, FRANCE
351 2013 VIVARELLI PAUL 05:21:02:900 F 65 118.00 BIGUGLIA, FRANCE
352 2008 DEBELLY GERARD 05:21:38:000 F 66 117.50 ST LAURENT DU VAR, FRANCE
353 295 PALACIN PEDRO 05:22:10:900 D 100 100.50 VAULNAVEYS LE HAUT, FRANCE
354 543 GOUBARD JEAN PIERRE 05:22:12:000 F 67 117.00 BEAUNE, FRANCE
355 330 VILLIER LOUIS 05:22:13:000 F 68 116.50 MERCEUIL MEURSAULT, FRANCE
356 2295 RAMIER DENIS 05:23:24:000 F 69 116.00 AIX EN PROVENCE, FRANCE
357 2333 HALLUIN MICHEL 05:23:28:000 F 70 115.50 QUESNOY SUR DEULE, FRANCE
358 2163 SARNELLI JEAN PAUL 05:24:01:000 E 118 91.50 MARSEILLE, FRANCE
359 2464 BRIZIO CARLO 05:24:01:500 F 71 115.00 POGGIO SAN REMO, ITALIE
360 2200 SCHARNOPOL FREDERIC 05:24:20:000 D 101 100.00 CABRIES, FRANCE
361 2383 AGOSTI JEAN MARIE 05:24:34:000 F 72 114.50 GRASSE, FRANCE
362 2014 BALDACCI BRIGITTE 05:27:01:000 B 3 149.00 BIGUGLIA, FRANCE
363 2040 OGIER NICOLAS 05:27:51:000 D 102 99.50 CARROS, FRANCE
364 2357 LORRILARD WILFRID 05:28:18:000 D 103 99.00 ST AYGULF, FRANCE
365 2356 GIRAUD PASCAL 05:28:18:800 E 119 91.00 CHANOS CURSON, FRANCE
366 2107 PERNIN ROBERT 05:28:21:000 E 120 90.50 ROMANS SUR ISERE, FRANCE
367 2296 PERRIN BERNARD 05:29:08:000 F 73 114.00 PONT DE CHERUY, FRANCE
368 2114 GUESNEY GILLES 05:29:29:000 E 121 90.00 TALANT, FRANCE
369 2125 GRINAND LOUIS 05:29:49:000 G 30 135.50 LA CIOTAT, FRANCE
370 2094 BERNARD CATHERINE 05:31:05:000 B 4 148.50 DOUSSARD, FRANCE
371 2061 DUCHENE VERONIQUE 05:31:08:000 A 9 146.00 PRINGY, FRANCE
373 2286 SILLEGUE PATRICK 05:31:25:000 E 122 89.50 GASSIN, FRANCE
374 2064 CISMONDI PATRICK 05:31:27:000 E 123 89.00 VIDAUBAN, FRANCE
375 2073 FERMIER PHILIPPE 05:31:27:600 E 124 88.50 VIDAUBAN, FRANCE
376 2065 ROBBE COURTOIS JEAN MICHEL 05:31:29:100 E 125 88.00 LE CANNET DES MAURES, FRANCE
377 2268 VERGOS MAURICE 05:32:10:000 G 31 135.00 LE REVEST, FRANCE
378 411 AMIC FREDERIC 05:33:31:500 E 126 87.50 DRAGUIGNAN, FRANCE
379 2307 GUION PIERRE YVES 05:34:40:000 E 127 87.00 LE THOLONET, FRANCE
380 2126 DABAT CECILE 05:35:01:000 B 5 148.00 AIX EN PROVENCE, FRANCE
381 2057 JOUBERT MARC 05:35:03:000 G 32 134.50 EGUILLES, FRANCE
382 2270 MAUDUIT JEAN YVES 05:35:55:000 E 128 86.50 FREJUS, FRANCE
383 2249 LEMPEREUR HERVE 05:36:12:000 D 104 98.50 TOULON, FRANCE
384 2138 JALOUX JAMES 05:36:24:000 G 33 134.00 STE CROIX DE VERDON, FRANCE
385 2393 UBERTI ALAIN 05:36:40:000 E 129 86.00 VIDAUBAN, FRANCE
386 2195 DE SAIGNES PHILIPPE 05:36:46:000 F 74 113.50 LYON, FRANCE
387 2233 HEYLEN JULIEN 05:37:18:000 F 75 113.00 BRECHT, BELGIQUE
388 2009 NEGRI JOEL 05:37:28:000 D 105 98.00 MARSEILLE, FRANCE
389 2106 UNY DANIEL 05:37:37:000 F 76 112.50 ROMANS SUR ISERE, FRANCE
390 2097 GARNERONE SYLVIE 05:38:49:000 A 10 145.50 CHATEAUNEUF DE GRASSE, FRANCE
391 2363 BARAVALLE BERNARD 05:38:56:500 E 130 85.50 HYERES, FRANCE
392 2038 MORONI BERNARD 05:39:58:000 E 131 85.00 LE PRADET, FRANCE
393 2118 MOREAU BERNARD 05:40:00:000 F 77 112.00 CHASSAGNE MONTRACHET, FRANCE
394 2280 GERMANAZ JEAN 05:40:02:000 G 34 133.50 SAVOURNON, FRANCE
395 2141 CHOUTEAU JULIEN 05:41:16:000 C 27 137.00 LYON, FRANCE
396 2019 UTLEY CATHERINE 05:42:15:000 B 6 147.50 LONDON, Royaume-Uni
397 2113 POITOUT GILLES 05:42:17:000 F 78 111.50 DIJON, FRANCE
398 2140 HILLIOU VICTOR 05:42:44:000 G 35 133.00 MUR DE BRETAGNE, FRANCE
399 2339 MAZZONE MARIO 05:43:00:000 G 36 132.50 MONTAUD, FRANCE
400 2112 MANGEMATIN GILLES 05:43:03:300 E 132 84.50 PLOMBIERES LES DIJON, FRANCE
401 2116 VARLET THIERRY 05:43:05:400 D 106 97.50 MEZEL, FRANCE
402 2166 PALMADE ROMAIN 05:43:43:000 C 28 136.50 AURIOL, FRANCE
403 2455 RUINI DENIS 05:44:26:800 F 79 111.00 BOUC BEL AIR, FRANCE
404 301 PETIT BOYER MICHEL 05:44:27:000 E 133 84.00 VILLARD DE LANS, FRANCE
405 2463 SADANIA JEAN BERNARD 05:44:27:700 E 134 83.50 BOUC BEL AIR, FRANCE
406 510 CROSATO JACK 05:45:01:000 G 37 132.00 BORMES, FRANCE
407 493 HARTMAN WILLEM 05:45:22:000 F 80 110.50 HOOGLAND, Pays-Bas
408 2385 LEO MICHEL 05:46:02:000 E 135 83.00 GRASSE, FRANCE
409 2276 JANY JEAN 05:46:38:000 F 81 110.00 COGOLIN-PLAGE, FRANCE
410 2046 JOURDAN GUY 05:48:20:700 E 136 82.50 VAULX MILIEU, FRANCE
411 2152 GANNEAU GEORGES 05:48:58:000 G 38 131.50 CAMPS LA SOURCE, FRANCE
413 2460 CHANTRE PHILIPPE 05:51:24:000 E 137 82.00 ST PAUL, FRANCE
414 350 DEHAN JEAN PAUL 05:52:28:000 F 82 109.50 TARADEAU, FRANCE
415 2272 RUSCICA MARCEL 05:52:55:000 D 107 97.00 CAVALAIRE, FRANCE
416 2352 HUG ANDRE 05:57:16:000 F 83 109.00 STE MAXIME, FRANCE
417 2077 CHOUTEAU STEPHANIE 05:59:56:000 A 11 145.00 CROLLES, FRANCE
418 2457 BOTTA VENIER VERONIQUE 06:02:27:000 B 7 147.00 JUAN LES PINS, FRANCE
419 2458 TOSELLO ALAIN 06:02:28:000 E 138 81.50 JUAN LES PINS, FRANCE
420 2167 GERNEZ DOMINIQUE 06:03:27:000 B 8 146.50 AIX EN PROVENCE, FRANCE
421 2054 SCORLETTI CHANTALE 06:03:28:400 B 9 146.00 AIX EN PROVENCE, FRANCE
423 2303 MEUNIER RIVIERE CHRISTIAN 06:05:16:000 G 39 131.00 VEUREY VOROIZE, FRANCE
424 2358 MAZENOD OLIVIER 06:07:16:000 D 108 96.50 CARRIERE SOUS POISSY, FRANCE
425 2048 RASCOL JEAN LOUIS 06:07:34:300 F 84 108.50 VILLEFONTAINE, FRANCE
426 396 PINGAUD DENIS 06:08:30:000 E 139 81.00 DIJON, FRANCE
427 2288 PAUCHARD CLAUDE 06:08:40:700 G 40 130.50 MARSEILLE, FRANCE
428 2337 BERNARD JACQUES 06:08:45:000 F 85 108.00 FRANCHELEINS, FRANCE
429 2334 OVISTE MARCEL 06:08:50:000 G 41 130.00 MESSIMY SUR SAONE, FRANCE
430 2453 BRARD CHRISTIAN 06:09:08:000 F 86 107.50 CALLIAN, FRANCE
431 2078 FERRATO PATRICE 06:10:15:000 C 29 136.00 GIGNAC LA NERTHE, FRANCE
432 2323 LAMURE RENE 06:11:53:000 G 42 129.50 CHASSIGNY SUR DUN, FRANCE
433 2088 BOURGEOIS ROBERT 06:16:20:000 F 87 107.00 CARNOUX EN PROVENCE, FRANCE
434 2086 EXERTIER GEORGES 06:16:22:000 F 88 106.50 CARNOUX EN PROVENCE, FRANCE
435 2087 CAMPS PIERRE 06:16:23:000 F 89 106.00 CARNOUX EN PROVENCE, FRANCE
436 2271 LONGHI AMBROISE 06:16:40:000 F 90 105.50 COINCY, FRANCE
437 2043 GUILLON MARIE CLAUDE 06:17:37:000 B 10 145.50 VILLEFONTAINE, FRANCE
438 2297 NANIA YVES 06:18:53:000 F 91 105.00 VILLEMOIVIEU, FRANCE
439 2317 GOMEZ EVELYNE 06:21:45:000 B 11 145.00 VICHY, FRANCE
440 2070 DOUCET CLAUDE 06:30:45:000 G 43 129.00 MASSY, FRANCE
441 2338 GIRIN PATRICE 06:36:37:000 E 140 80.50 MONTCEAUX, FRANCE
442 2335 BACOT DANIEL 06:36:39:000 F 92 104.50 JASSANS, FRANCE
443 2010 LAUMONDAYS GILLES 06:37:28:000 E 141 80.00 GRASSE, FRANCE
444 2374 CARLETTI JEAN PAUL 06:39:38:000 G 44 128.50 MONTFERRAT, FRANCE
445 2320 MELI JEAN PIERRE 06:44:32:000 B 12 144.50 COTIGNAC, FRANCE
446 344 MICHELOUD GABY 06:44:48:000 F 93 104.00 GRONE, SUISSE
447 2322 MASSE GILLES 06:45:04:000 E 142 79.50 ANTIBES, FRANCE
448 2235 BONTOUX PIERRE 06:51:27:900 G 45 128.00 MOUGINS, FRANCE
449 541 RIBA PAOLO 06:59:07:000 F 94 103.50 CARAGLIO (CUNEO), ITALIE
450 404 GRAILHE JEAN CLAUDE 07:01:01:000 G 46 127.50 VENELLES, FRANCE

La Picarde Baie de Somme

Après une saison 2020 très particulière et face à cette pandémie qui s'étire en longueur, nous avons dû nous adapter.

Ainsi, c'est avec beaucoup de regrets que nous vous annonçons que La Picarde Baie de Somme ne sera pas organisée en 2021.

Nous travaillons afin que vous puissiez relever le défi de manière alternative.

Nous vous tiendrons informés.
TOP